sensor_id;sensor_type;location;lat;lon;timestamp;pressure;altitude;pressure_sealevel;temperature;humidity
8627;BME280;4351;51.422;6.794;2023-07-22T00:00:46;101321.00;;;14.46;100.00
8627;BME280;4351;51.422;6.794;2023-07-22T00:03:14;101318.31;;;14.46;100.00
8627;BME280;4351;51.422;6.794;2023-07-22T00:05:43;101318.75;;;14.53;100.00
8627;BME280;4351;51.422;6.794;2023-07-22T00:08:11;101323.41;;;14.51;100.00
8627;BME280;4351;51.422;6.794;2023-07-22T00:10:40;101324.84;;;14.57;100.00
8627;BME280;4351;51.422;6.794;2023-07-22T00:13:09;101315.06;;;14.54;100.00
8627;BME280;4351;51.422;6.794;2023-07-22T00:15:37;101318.97;;;14.50;100.00
8627;BME280;4351;51.422;6.794;2023-07-22T00:18:05;101315.28;;;14.51;100.00
8627;BME280;4351;51.422;6.794;2023-07-22T00:20:34;101310.59;;;14.53;100.00
8627;BME280;4351;51.422;6.794;2023-07-22T00:23:04;101302.47;;;14.53;100.00
8627;BME280;4351;51.422;6.794;2023-07-22T00:25:32;101303.75;;;14.34;100.00
8627;BME280;4351;51.422;6.794;2023-07-22T00:28:00;101300.25;;;14.32;100.00
8627;BME280;4351;51.422;6.794;2023-07-22T00:30:28;101295.19;;;14.41;100.00
8627;BME280;4351;51.422;6.794;2023-07-22T00:32:55;101289.63;;;14.42;100.00
8627;BME280;4351;51.422;6.794;2023-07-22T00:35:24;101302.88;;;14.47;100.00
8627;BME280;4351;51.422;6.794;2023-07-22T00:37:52;101298.38;;;14.60;100.00
8627;BME280;4351;51.422;6.794;2023-07-22T00:40:21;101313.00;;;14.58;100.00
8627;BME280;4351;51.422;6.794;2023-07-22T00:42:49;101296.59;;;14.59;100.00
8627;BME280;4351;51.422;6.794;2023-07-22T00:45:17;101297.47;;;14.60;100.00
8627;BME280;4351;51.422;6.794;2023-07-22T00:47:46;101297.94;;;14.67;100.00
8627;BME280;4351;51.422;6.794;2023-07-22T00:50:14;101297.59;;;14.58;100.00
8627;BME280;4351;51.422;6.794;2023-07-22T00:52:42;101292.06;;;14.60;100.00
8627;BME280;4351;51.422;6.794;2023-07-22T00:55:10;101294.66;;;14.62;100.00
8627;BME280;4351;51.422;6.794;2023-07-22T00:57:39;101290.75;;;14.66;100.00
8627;BME280;4351;51.422;6.794;2023-07-22T01:00:08;101293.56;;;14.64;100.00
8627;BME280;4351;51.422;6.794;2023-07-22T01:02:39;101293.34;;;14.54;100.00
8627;BME280;4351;51.422;6.794;2023-07-22T01:05:08;101281.84;;;14.64;100.00
8627;BME280;4351;51.422;6.794;2023-07-22T01:07:37;101295.09;;;14.55;100.00
8627;BME280;4351;51.422;6.794;2023-07-22T01:10:07;101279.25;;;14.62;100.00
8627;BME280;4351;51.422;6.794;2023-07-22T01:12:36;101289.75;;;14.41;100.00
8627;BME280;4351;51.422;6.794;2023-07-22T01:15:07;101288.66;;;14.43;100.00
8627;BME280;4351;51.422;6.794;2023-07-22T01:17:36;101278.16;;;14.52;100.00
8627;BME280;4351;51.422;6.794;2023-07-22T01:20:05;101279.34;;;14.60;100.00
8627;BME280;4351;51.422;6.794;2023-07-22T01:22:34;101274.25;;;14.56;100.00
8627;BME280;4351;51.422;6.794;2023-07-22T01:25:06;101287.03;;;14.41;100.00
8627;BME280;4351;51.422;6.794;2023-07-22T01:27:35;101272.69;;;14.39;100.00
8627;BME280;4351;51.422;6.794;2023-07-22T01:30:04;101276.19;;;14.41;100.00
8627;BME280;4351;51.422;6.794;2023-07-22T01:32:33;101279.88;;;14.53;100.00
8627;BME280;4351;51.422;6.794;2023-07-22T01:35:01;101274.00;;;14.46;100.00
8627;BME280;4351;51.422;6.794;2023-07-22T01:37:29;101276.97;;;14.56;100.00
8627;BME280;4351;51.422;6.794;2023-07-22T01:39:58;101272.72;;;14.65;100.00
8627;BME280;4351;51.422;6.794;2023-07-22T01:42:28;101272.31;;;14.71;100.00
8627;BME280;4351;51.422;6.794;2023-07-22T01:44:55;101276.53;;;14.75;100.00
8627;BME280;4351;51.422;6.794;2023-07-22T01:47:23;101276.66;;;14.74;100.00
8627;BME280;4351;51.422;6.794;2023-07-22T01:49:52;101269.78;;;14.68;100.00
8627;BME280;4351;51.422;6.794;2023-07-22T01:52:20;101268.59;;;14.59;100.00
8627;BME280;4351;51.422;6.794;2023-07-22T01:54:48;101260.78;;;14.67;100.00
8627;BME280;4351;51.422;6.794;2023-07-22T01:57:15;101258.16;;;14.66;100.00
8627;BME280;4351;51.422;6.794;2023-07-22T01:59:45;101255.56;;;14.77;100.00
8627;BME280;4351;51.422;6.794;2023-07-22T02:02:13;101263.06;;;14.74;100.00
8627;BME280;4351;51.422;6.794;2023-07-22T02:04:41;101255.25;;;14.69;100.00
8627;BME280;4351;51.422;6.794;2023-07-22T02:07:09;101265.69;;;14.75;100.00
8627;BME280;4351;51.422;6.794;2023-07-22T02:09:37;101263.56;;;14.40;100.00
8627;BME280;4351;51.422;6.794;2023-07-22T02:12:06;101266.28;;;14.53;100.00
8627;BME280;4351;51.422;6.794;2023-07-22T02:14:34;101258.59;;;14.73;100.00
8627;BME280;4351;51.422;6.794;2023-07-22T02:17:05;101262.63;;;14.67;100.00
8627;BME280;4351;51.422;6.794;2023-07-22T02:19:36;101264.47;;;14.66;100.00
8627;BME280;4351;51.422;6.794;2023-07-22T02:22:04;101260.25;;;14.75;100.00
8627;BME280;4351;51.422;6.794;2023-07-22T02:24:32;101267.50;;;14.75;100.00
8627;BME280;4351;51.422;6.794;2023-07-22T02:27:00;101257.09;;;14.81;100.00
8627;BME280;4351;51.422;6.794;2023-07-22T02:29:28;101254.81;;;14.75;100.00
8627;BME280;4351;51.422;6.794;2023-07-22T02:31:57;101254.09;;;14.86;100.00
8627;BME280;4351;51.422;6.794;2023-07-22T02:34:27;101248.81;;;14.83;100.00
8627;BME280;4351;51.422;6.794;2023-07-22T02:36:55;101254.97;;;14.87;100.00
8627;BME280;4351;51.422;6.794;2023-07-22T02:39:23;101253.00;;;14.89;100.00
8627;BME280;4351;51.422;6.794;2023-07-22T02:41:51;101255.56;;;14.77;100.00
8627;BME280;4351;51.422;6.794;2023-07-22T02:44:19;101254.16;;;14.71;100.00
8627;BME280;4351;51.422;6.794;2023-07-22T02:46:47;101252.84;;;14.77;100.00
8627;BME280;4351;51.422;6.794;2023-07-22T02:49:15;101261.00;;;14.77;100.00
8627;BME280;4351;51.422;6.794;2023-07-22T02:51:44;101254.06;;;14.73;100.00
8627;BME280;4351;51.422;6.794;2023-07-22T02:54:12;101263.84;;;14.76;100.00
8627;BME280;4351;51.422;6.794;2023-07-22T02:56:40;101257.97;;;14.69;100.00
8627;BME280;4351;51.422;6.794;2023-07-22T02:59:09;101262.53;;;14.81;100.00
8627;BME280;4351;51.422;6.794;2023-07-22T03:01:37;101264.72;;;14.76;100.00
8627;BME280;4351;51.422;6.794;2023-07-22T03:04:06;101262.75;;;14.78;100.00
8627;BME280;4351;51.422;6.794;2023-07-22T03:06:34;101267.94;;;14.81;100.00
8627;BME280;4351;51.422;6.794;2023-07-22T03:09:03;101267.84;;;14.83;100.00
8627;BME280;4351;51.422;6.794;2023-07-22T03:11:31;101270.38;;;14.86;100.00
8627;BME280;4351;51.422;6.794;2023-07-22T03:13:59;101270.25;;;14.88;100.00
8627;BME280;4351;51.422;6.794;2023-07-22T03:16:28;101268.66;;;14.85;100.00
8627;BME280;4351;51.422;6.794;2023-07-22T03:18:58;101270.03;;;14.78;100.00
8627;BME280;4351;51.422;6.794;2023-07-22T03:21:26;101276.47;;;14.90;100.00
8627;BME280;4351;51.422;6.794;2023-07-22T03:23:55;101276.22;;;14.80;100.00
8627;BME280;4351;51.422;6.794;2023-07-22T03:26:25;101274.81;;;14.74;100.00
8627;BME280;4351;51.422;6.794;2023-07-22T03:28:53;101267.31;;;14.78;100.00
8627;BME280;4351;51.422;6.794;2023-07-22T03:31:21;101279.38;;;14.74;100.00
8627;BME280;4351;51.422;6.794;2023-07-22T03:33:48;101281.31;;;14.71;100.00
8627;BME280;4351;51.422;6.794;2023-07-22T03:36:16;101284.25;;;14.81;100.00
8627;BME280;4351;51.422;6.794;2023-07-22T03:38:44;101278.81;;;14.81;100.00
8627;BME280;4351;51.422;6.794;2023-07-22T03:41:12;101273.38;;;14.68;100.00
8627;BME280;4351;51.422;6.794;2023-07-22T03:43:42;101273.19;;;14.71;100.00
8627;BME280;4351;51.422;6.794;2023-07-22T03:46:09;101277.09;;;14.80;100.00
8627;BME280;4351;51.422;6.794;2023-07-22T03:48:37;101278.66;;;14.85;100.00
8627;BME280;4351;51.422;6.794;2023-07-22T03:51:05;101281.47;;;14.96;100.00
8627;BME280;4351;51.422;6.794;2023-07-22T03:53:46;101283.31;;;14.96;100.00
8627;BME280;4351;51.422;6.794;2023-07-22T03:56:14;101281.03;;;15.02;100.00
8627;BME280;4351;51.422;6.794;2023-07-22T03:58:43;101281.25;;;14.99;100.00
8627;BME280;4351;51.422;6.794;2023-07-22T04:01:12;101281.78;;;15.04;100.00
8627;BME280;4351;51.422;6.794;2023-07-22T04:03:40;101281.13;;;15.01;100.00
8627;BME280;4351;51.422;6.794;2023-07-22T04:06:08;101281.78;;;15.04;100.00
8627;BME280;4351;51.422;6.794;2023-07-22T04:08:36;101288.19;;;15.03;100.00
8627;BME280;4351;51.422;6.794;2023-07-22T04:11:04;101284.50;;;15.04;100.00
8627;BME280;4351;51.422;6.794;2023-07-22T04:13:31;101284.72;;;15.14;100.00
8627;BME280;4351;51.422;6.794;2023-07-22T04:16:01;101279.72;;;15.08;100.00
8627;BME280;4351;51.422;6.794;2023-07-22T04:18:29;101286.56;;;15.14;100.00
8627;BME280;4351;51.422;6.794;2023-07-22T04:21:01;101284.84;;;15.13;100.00
8627;BME280;4351;51.422;6.794;2023-07-22T04:23:29;101286.78;;;15.11;100.00
8627;BME280;4351;51.422;6.794;2023-07-22T04:26:02;101287.31;;;15.16;100.00
8627;BME280;4351;51.422;6.794;2023-07-22T04:28:31;101290.69;;;15.33;100.00
8627;BME280;4351;51.422;6.794;2023-07-22T04:31:00;101290.13;;;15.27;100.00
8627;BME280;4351;51.422;6.794;2023-07-22T04:33:28;101293.41;;;15.20;100.00
8627;BME280;4351;51.422;6.794;2023-07-22T04:35:57;101302.44;;;15.20;100.00
8627;BME280;4351;51.422;6.794;2023-07-22T04:38:26;101301.44;;;15.34;100.00
8627;BME280;4351;51.422;6.794;2023-07-22T04:40:53;101296.22;;;15.31;100.00
8627;BME280;4351;51.422;6.794;2023-07-22T04:43:21;101299.03;;;15.29;100.00
8627;BME280;4351;51.422;6.794;2023-07-22T04:45:49;101297.31;;;15.42;100.00
8627;BME280;4351;51.422;6.794;2023-07-22T04:48:20;101300.13;;;15.40;100.00
8627;BME280;4351;51.422;6.794;2023-07-22T04:50:48;101304.78;;;15.38;100.00
8627;BME280;4351;51.422;6.794;2023-07-22T04:53:16;101295.88;;;15.36;100.00
8627;BME280;4351;51.422;6.794;2023-07-22T04:55:45;101299.59;;;15.35;100.00
8627;BME280;4351;51.422;6.794;2023-07-22T04:58:12;101297.50;;;15.38;100.00
8627;BME280;4351;51.422;6.794;2023-07-22T05:00:40;101288.81;;;15.46;100.00
8627;BME280;4351;51.422;6.794;2023-07-22T05:03:09;101295.00;;;15.48;100.00
8627;BME280;4351;51.422;6.794;2023-07-22T05:05:38;101286.59;;;15.51;100.00
8627;BME280;4351;51.422;6.794;2023-07-22T05:08:06;101294.00;;;15.49;100.00
8627;BME280;4351;51.422;6.794;2023-07-22T05:10:36;101289.25;;;15.53;100.00
8627;BME280;4351;51.422;6.794;2023-07-22T05:13:04;101290.31;;;15.50;100.00
8627;BME280;4351;51.422;6.794;2023-07-22T05:15:32;101299.91;;;15.43;100.00
8627;BME280;4351;51.422;6.794;2023-07-22T05:18:00;101285.63;;;15.52;100.00
8627;BME280;4351;51.422;6.794;2023-07-22T05:20:28;101291.19;;;15.51;100.00
8627;BME280;4351;51.422;6.794;2023-07-22T05:22:57;101303.50;;;15.44;100.00
8627;BME280;4351;51.422;6.794;2023-07-22T05:25:25;101293.13;;;15.49;100.00
8627;BME280;4351;51.422;6.794;2023-07-22T05:27:53;101307.50;;;15.38;100.00
8627;BME280;4351;51.422;6.794;2023-07-22T05:30:21;101305.66;;;15.38;100.00
8627;BME280;4351;51.422;6.794;2023-07-22T05:33:00;101307.41;;;15.39;100.00
8627;BME280;4351;51.422;6.794;2023-07-22T05:35:29;101302.63;;;15.43;100.00
8627;BME280;4351;51.422;6.794;2023-07-22T05:37:58;101306.72;;;15.62;100.00
8627;BME280;4351;51.422;6.794;2023-07-22T05:40:27;101311.50;;;15.58;100.00
8627;BME280;4351;51.422;6.794;2023-07-22T05:42:55;101311.28;;;15.61;100.00
8627;BME280;4351;51.422;6.794;2023-07-22T05:45:22;101313.13;;;15.61;100.00
8627;BME280;4351;51.422;6.794;2023-07-22T05:47:50;101313.97;;;15.74;100.00
8627;BME280;4351;51.422;6.794;2023-07-22T05:50:18;101316.81;;;15.73;100.00
8627;BME280;4351;51.422;6.794;2023-07-22T05:52:46;101311.91;;;15.65;100.00
8627;BME280;4351;51.422;6.794;2023-07-22T05:55:15;101305.47;;;15.79;100.00
8627;BME280;4351;51.422;6.794;2023-07-22T05:57:43;101310.94;;;15.66;100.00
8627;BME280;4351;51.422;6.794;2023-07-22T06:00:12;101307.88;;;15.71;100.00
8627;BME280;4351;51.422;6.794;2023-07-22T06:02:40;101311.38;;;15.73;100.00
8627;BME280;4351;51.422;6.794;2023-07-22T06:05:08;101310.66;;;15.82;100.00
8627;BME280;4351;51.422;6.794;2023-07-22T06:07:36;101311.22;;;15.88;100.00
8627;BME280;4351;51.422;6.794;2023-07-22T06:10:05;101313.00;;;16.00;100.00
8627;BME280;4351;51.422;6.794;2023-07-22T06:12:35;101312.81;;;16.03;100.00
8627;BME280;4351;51.422;6.794;2023-07-22T06:15:04;101303.88;;;16.01;100.00
8627;BME280;4351;51.422;6.794;2023-07-22T06:17:32;101304.94;;;16.12;100.00
8627;BME280;4351;51.422;6.794;2023-07-22T06:20:00;101295.09;;;16.22;100.00
8627;BME280;4351;51.422;6.794;2023-07-22T06:22:28;101307.00;;;16.32;100.00
8627;BME280;4351;51.422;6.794;2023-07-22T06:24:56;101307.06;;;16.19;100.00
8627;BME280;4351;51.422;6.794;2023-07-22T06:27:25;101310.25;;;16.38;100.00
8627;BME280;4351;51.422;6.794;2023-07-22T06:29:54;101304.94;;;16.48;100.00
8627;BME280;4351;51.422;6.794;2023-07-22T06:32:22;101300.78;;;16.55;100.00
8627;BME280;4351;51.422;6.794;2023-07-22T06:34:53;101307.72;;;16.59;100.00
8627;BME280;4351;51.422;6.794;2023-07-22T06:37:24;101304.63;;;16.64;100.00
8627;BME280;4351;51.422;6.794;2023-07-22T06:39:52;101309.47;;;16.60;100.00
8627;BME280;4351;51.422;6.794;2023-07-22T06:42:20;101300.63;;;16.93;100.00
8627;BME280;4351;51.422;6.794;2023-07-22T06:44:49;101305.56;;;16.76;100.00
8627;BME280;4351;51.422;6.794;2023-07-22T06:47:18;101304.22;;;16.93;100.00
8627;BME280;4351;51.422;6.794;2023-07-22T06:49:46;101300.38;;;16.96;100.00
8627;BME280;4351;51.422;6.794;2023-07-22T06:52:14;101307.78;;;16.82;100.00
8627;BME280;4351;51.422;6.794;2023-07-22T06:54:42;101301.59;;;16.80;100.00
8627;BME280;4351;51.422;6.794;2023-07-22T06:57:10;101302.44;;;16.69;100.00
8627;BME280;4351;51.422;6.794;2023-07-22T06:59:38;101295.16;;;16.93;100.00
8627;BME280;4351;51.422;6.794;2023-07-22T07:02:06;101294.06;;;16.95;100.00
8627;BME280;4351;51.422;6.794;2023-07-22T07:04:35;101295.16;;;16.93;100.00
8627;BME280;4351;51.422;6.794;2023-07-22T07:07:03;101296.63;;;16.85;100.00
8627;BME280;4351;51.422;6.794;2023-07-22T07:09:31;101288.97;;;16.91;100.00
8627;BME280;4351;51.422;6.794;2023-07-22T07:11:59;101294.97;;;17.19;100.00
8627;BME280;4351;51.422;6.794;2023-07-22T07:14:27;101291.56;;;16.92;100.00
8627;BME280;4351;51.422;6.794;2023-07-22T07:16:55;101299.53;;;17.07;100.00
8627;BME280;4351;51.422;6.794;2023-07-22T07:19:23;101301.88;;;17.00;100.00
8627;BME280;4351;51.422;6.794;2023-07-22T07:21:52;101307.94;;;17.04;100.00
8627;BME280;4351;51.422;6.794;2023-07-22T07:24:20;101300.53;;;17.40;100.00
8627;BME280;4351;51.422;6.794;2023-07-22T07:26:48;101292.50;;;17.39;100.00
8627;BME280;4351;51.422;6.794;2023-07-22T07:29:16;101298.94;;;17.38;100.00
8627;BME280;4351;51.422;6.794;2023-07-22T07:32:05;101303.16;;;17.19;100.00
8627;BME280;4351;51.422;6.794;2023-07-22T07:34:35;101314.28;;;17.16;100.00
8627;BME280;4351;51.422;6.794;2023-07-22T07:37:07;101307.84;;;17.17;100.00
8627;BME280;4351;51.422;6.794;2023-07-22T07:39:36;101312.81;;;17.23;100.00
8627;BME280;4351;51.422;6.794;2023-07-22T07:42:05;101314.53;;;17.35;100.00
8627;BME280;4351;51.422;6.794;2023-07-22T07:44:33;101311.94;;;17.22;100.00
8627;BME280;4351;51.422;6.794;2023-07-22T07:47:01;101311.09;;;17.22;100.00
8627;BME280;4351;51.422;6.794;2023-07-22T07:49:30;101306.63;;;17.32;100.00
8627;BME280;4351;51.422;6.794;2023-07-22T07:51:58;101308.47;;;17.55;100.00
8627;BME280;4351;51.422;6.794;2023-07-22T07:54:27;101309.09;;;17.47;100.00
8627;BME280;4351;51.422;6.794;2023-07-22T07:56:59;101314.75;;;17.78;100.00
8627;BME280;4351;51.422;6.794;2023-07-22T07:59:27;101306.88;;;17.64;100.00
8627;BME280;4351;51.422;6.794;2023-07-22T08:01:58;101305.72;;;17.66;100.00
8627;BME280;4351;51.422;6.794;2023-07-22T08:04:26;101310.03;;;17.92;100.00
8627;BME280;4351;51.422;6.794;2023-07-22T08:06:54;101322.72;;;17.58;100.00
8627;BME280;4351;51.422;6.794;2023-07-22T08:09:22;101317.88;;;17.62;100.00
8627;BME280;4351;51.422;6.794;2023-07-22T08:11:51;101324.72;;;17.68;100.00
8627;BME280;4351;51.422;6.794;2023-07-22T08:14:19;101312.31;;;17.64;100.00
8627;BME280;4351;51.422;6.794;2023-07-22T08:16:48;101312.09;;;18.00;100.00
8627;BME280;4351;51.422;6.794;2023-07-22T08:19:17;101319.66;;;18.08;100.00
8627;BME280;4351;51.422;6.794;2023-07-22T08:21:44;101311.47;;;18.08;100.00
8627;BME280;4351;51.422;6.794;2023-07-22T08:24:12;101314.44;;;18.16;100.00
8627;BME280;4351;51.422;6.794;2023-07-22T08:26:40;101312.75;;;17.92;100.00
8627;BME280;4351;51.422;6.794;2023-07-22T08:29:09;101300.63;;;18.29;100.00
8627;BME280;4351;51.422;6.794;2023-07-22T08:31:37;101303.00;;;18.11;100.00
8627;BME280;4351;51.422;6.794;2023-07-22T08:34:06;101298.88;;;18.28;100.00
8627;BME280;4351;51.422;6.794;2023-07-22T08:36:33;101297.72;;;18.42;100.00
8627;BME280;4351;51.422;6.794;2023-07-22T08:39:02;101294.72;;;18.67;100.00
8627;BME280;4351;51.422;6.794;2023-07-22T08:41:31;101305.25;;;18.50;100.00
8627;BME280;4351;51.422;6.794;2023-07-22T08:43:59;101299.66;;;18.52;100.00
8627;BME280;4351;51.422;6.794;2023-07-22T08:46:29;101287.91;;;18.61;100.00
8627;BME280;4351;51.422;6.794;2023-07-22T08:49:00;101303.53;;;18.70;100.00
8627;BME280;4351;51.422;6.794;2023-07-22T08:51:28;101296.97;;;18.83;100.00
8627;BME280;4351;51.422;6.794;2023-07-22T08:53:59;101301.03;;;19.10;100.00
8627;BME280;4351;51.422;6.794;2023-07-22T08:56:37;101302.84;;;19.00;100.00
8627;BME280;4351;51.422;6.794;2023-07-22T08:59:05;101302.13;;;18.98;100.00
8627;BME280;4351;51.422;6.794;2023-07-22T09:01:35;101291.91;;;19.00;100.00
8627;BME280;4351;51.422;6.794;2023-07-22T09:04:03;101297.38;;;19.00;100.00
8627;BME280;4351;51.422;6.794;2023-07-22T09:06:32;101290.63;;;19.25;100.00
8627;BME280;4351;51.422;6.794;2023-07-22T09:09:01;101297.78;;;19.16;100.00
8627;BME280;4351;51.422;6.794;2023-07-22T09:11:31;101288.34;;;19.09;100.00
8627;BME280;4351;51.422;6.794;2023-07-22T09:14:00;101288.53;;;19.17;100.00
8627;BME280;4351;51.422;6.794;2023-07-22T09:16:30;101289.47;;;19.28;100.00
8627;BME280;4351;51.422;6.794;2023-07-22T09:19:00;101298.69;;;19.27;100.00
8627;BME280;4351;51.422;6.794;2023-07-22T09:21:28;101296.47;;;19.52;100.00
8627;BME280;4351;51.422;6.794;2023-07-22T09:23:56;101290.22;;;19.30;100.00
8627;BME280;4351;51.422;6.794;2023-07-22T09:26:24;101291.13;;;19.50;100.00
8627;BME280;4351;51.422;6.794;2023-07-22T09:28:54;101284.41;;;19.55;100.00
8627;BME280;4351;51.422;6.794;2023-07-22T09:31:23;101291.88;;;19.52;100.00
8627;BME280;4351;51.422;6.794;2023-07-22T09:33:52;101285.75;;;19.80;100.00
8627;BME280;4351;51.422;6.794;2023-07-22T09:36:22;101289.03;;;19.74;100.00
8627;BME280;4351;51.422;6.794;2023-07-22T09:39:00;101288.66;;;20.08;100.00
8627;BME280;4351;51.422;6.794;2023-07-22T09:41:30;101285.75;;;19.80;100.00
8627;BME280;4351;51.422;6.794;2023-07-22T09:44:02;101285.28;;;19.75;100.00
8627;BME280;4351;51.422;6.794;2023-07-22T09:46:31;101277.56;;;20.00;100.00
8627;BME280;4351;51.422;6.794;2023-07-22T09:49:03;101285.75;;;19.80;100.00
8627;BME280;4351;51.422;6.794;2023-07-22T09:51:34;101279.44;;;19.90;100.00
8627;BME280;4351;51.422;6.794;2023-07-22T09:54:19;101276.69;;;19.90;100.00
8627;BME280;4351;51.422;6.794;2023-07-22T09:56:49;101279.84;;;19.95;100.00
8627;BME280;4351;51.422;6.794;2023-07-22T09:59:18;101287.69;;;20.09;100.00
8627;BME280;4351;51.422;6.794;2023-07-22T10:01:46;101277.69;;;19.88;100.00
8627;BME280;4351;51.422;6.794;2023-07-22T10:04:16;101277.56;;;20.00;100.00
8627;BME280;4351;51.422;6.794;2023-07-22T10:06:46;101270.34;;;19.99;100.00
8627;BME280;4351;51.422;6.794;2023-07-22T10:09:15;101280.72;;;20.05;100.00
8627;BME280;4351;51.422;6.794;2023-07-22T10:11:44;101272.69;;;20.33;100.00
8627;BME280;4351;51.422;6.794;2023-07-22T10:14:12;101267.63;;;20.19;100.00
8627;BME280;4351;51.422;6.794;2023-07-22T10:16:41;101273.84;;;20.11;100.00
8627;BME280;4351;51.422;6.794;2023-07-22T10:19:09;101283.06;;;20.40;100.00
8627;BME280;4351;51.422;6.794;2023-07-22T10:21:38;101270.97;;;20.32;100.00
8627;BME280;4351;51.422;6.794;2023-07-22T10:24:09;101262.88;;;20.21;100.00
8627;BME280;4351;51.422;6.794;2023-07-22T10:26:39;101280.63;;;20.17;100.00
8627;BME280;4351;51.422;6.794;2023-07-22T10:29:13;101260.28;;;20.29;100.00
8627;BME280;4351;51.422;6.794;2023-07-22T10:31:41;101264.03;;;20.28;100.00
8627;BME280;4351;51.422;6.794;2023-07-22T10:34:09;101260.00;;;20.32;100.00
8627;BME280;4351;51.422;6.794;2023-07-22T10:36:37;101252.50;;;20.35;100.00
8627;BME280;4351;51.422;6.794;2023-07-22T10:39:05;101260.97;;;20.51;100.00
8627;BME280;4351;51.422;6.794;2023-07-22T10:41:38;101244.97;;;20.56;100.00
8627;BME280;4351;51.422;6.794;2023-07-22T10:44:06;101245.03;;;20.27;100.00
8627;BME280;4351;51.422;6.794;2023-07-22T10:46:36;101243.84;;;20.39;100.00
8627;BME280;4351;51.422;6.794;2023-07-22T10:49:09;101232.16;;;20.47;100.00
8627;BME280;4351;51.422;6.794;2023-07-22T10:51:38;101240.50;;;20.55;100.00
8627;BME280;4351;51.422;6.794;2023-07-22T10:54:13;101235.44;;;20.61;100.00
8627;BME280;4351;51.422;6.794;2023-07-22T10:56:42;101238.16;;;20.71;100.00
8627;BME280;4351;51.422;6.794;2023-07-22T10:59:11;101231.69;;;20.62;100.00
8627;BME280;4351;51.422;6.794;2023-07-22T11:01:40;101227.06;;;20.72;100.00
8627;BME280;4351;51.422;6.794;2023-07-22T11:04:23;101220.53;;;20.73;100.00
8627;BME280;4351;51.422;6.794;2023-07-22T11:07:30;101220.69;;;20.82;100.00
8627;BME280;4351;51.422;6.794;2023-07-22T11:10:11;101224.97;;;20.84;100.00
8627;BME280;4351;51.422;6.794;2023-07-22T11:12:42;101218.91;;;20.90;100.00
8627;BME280;4351;51.422;6.794;2023-07-22T11:15:10;101218.34;;;20.87;100.00
8627;BME280;4351;51.422;6.794;2023-07-22T11:17:38;101229.94;;;21.19;100.00
8627;BME280;4351;51.422;6.794;2023-07-22T11:20:07;101225.56;;;20.88;100.00
8627;BME280;4351;51.422;6.794;2023-07-22T11:22:35;101213.41;;;21.00;100.00
8627;BME280;4351;51.422;6.794;2023-07-22T11:25:07;101209.50;;;21.03;100.00
8627;BME280;4351;51.422;6.794;2023-07-22T11:27:35;101210.16;;;21.15;100.00
8627;BME280;4351;51.422;6.794;2023-07-22T11:30:05;101206.47;;;21.34;100.00
8627;BME280;4351;51.422;6.794;2023-07-22T11:32:34;101212.72;;;21.27;100.00
8627;BME280;4351;51.422;6.794;2023-07-22T11:35:02;101194.50;;;21.72;100.00
8627;BME280;4351;51.422;6.794;2023-07-22T11:37:30;101194.16;;;21.39;100.00
8627;BME280;4351;51.422;6.794;2023-07-22T11:40:00;101207.03;;;21.38;100.00
8627;BME280;4351;51.422;6.794;2023-07-22T11:42:28;101198.97;;;21.55;100.00
8627;BME280;4351;51.422;6.794;2023-07-22T11:44:57;101197.53;;;21.51;100.00
8627;BME280;4351;51.422;6.794;2023-07-22T11:47:30;101202.66;;;21.45;100.00
8627;BME280;4351;51.422;6.794;2023-07-22T11:49:58;101201.66;;;21.65;100.00
8627;BME280;4351;51.422;6.794;2023-07-22T11:52:26;101193.78;;;21.52;100.00
8627;BME280;4351;51.422;6.794;2023-07-22T11:55:01;101179.69;;;21.65;100.00
8627;BME280;4351;51.422;6.794;2023-07-22T11:57:30;101184.06;;;21.57;100.00
8627;BME280;4351;51.422;6.794;2023-07-22T11:59:59;101181.31;;;21.57;100.00
8627;BME280;4351;51.422;6.794;2023-07-22T12:02:35;101179.34;;;21.68;100.00
8627;BME280;4351;51.422;6.794;2023-07-22T12:05:05;101181.00;;;21.79;100.00
8627;BME280;4351;51.422;6.794;2023-07-22T12:07:35;101156.97;;;21.91;100.00
8627;BME280;4351;51.422;6.794;2023-07-22T12:10:05;101163.28;;;21.55;100.00
8627;BME280;4351;51.422;6.794;2023-07-22T12:12:34;101170.59;;;21.64;100.00
8627;BME280;4351;51.422;6.794;2023-07-22T12:15:04;101170.50;;;22.11;100.00
8627;BME280;4351;51.422;6.794;2023-07-22T12:17:45;101167.38;;;22.05;100.00
8627;BME280;4351;51.422;6.794;2023-07-22T12:20:14;101154.13;;;22.01;100.00
8627;BME280;4351;51.422;6.794;2023-07-22T12:22:42;101159.06;;;21.97;100.00
8627;BME280;4351;51.422;6.794;2023-07-22T12:25:10;101152.06;;;22.03;100.00
8627;BME280;4351;51.422;6.794;2023-07-22T12:27:38;101138.41;;;22.11;100.00
8627;BME280;4351;51.422;6.794;2023-07-22T12:30:07;101145.41;;;22.05;100.00
8627;BME280;4351;51.422;6.794;2023-07-22T12:32:35;101140.31;;;21.92;100.00
8627;BME280;4351;51.422;6.794;2023-07-22T12:35:06;101158.34;;;21.77;100.00
8627;BME280;4351;51.422;6.794;2023-07-22T12:37:35;101160.59;;;21.91;100.00
8627;BME280;4351;51.422;6.794;2023-07-22T12:40:03;101143.81;;;22.03;100.00
8627;BME280;4351;51.422;6.794;2023-07-22T12:42:32;101142.81;;;22.04;100.00
8627;BME280;4351;51.422;6.794;2023-07-22T12:45:00;101137.97;;;21.98;100.00
8627;BME280;4351;51.422;6.794;2023-07-22T12:47:28;101139.16;;;21.95;100.00
8627;BME280;4351;51.422;6.794;2023-07-22T12:49:56;101137.97;;;21.98;100.00
8627;BME280;4351;51.422;6.794;2023-07-22T12:52:26;101132.25;;;21.91;100.00
8627;BME280;4351;51.422;6.794;2023-07-22T12:54:53;101129.34;;;21.92;100.00
8627;BME280;4351;51.422;6.794;2023-07-22T12:57:21;101125.06;;;22.16;100.00
8627;BME280;4351;51.422;6.794;2023-07-22T12:59:49;101109.44;;;22.17;100.00
8627;BME280;4351;51.422;6.794;2023-07-22T13:02:17;101090.47;;;22.32;100.00
8627;BME280;4351;51.422;6.794;2023-07-22T13:04:45;101098.75;;;22.40;100.00
8627;BME280;4351;51.422;6.794;2023-07-22T13:07:13;101118.31;;;22.11;100.00
8627;BME280;4351;51.422;6.794;2023-07-22T13:09:42;101119.25;;;22.20;100.00